createdAt,value
2018-08-06T00:00:32.905Z,2.20
2018-08-06T00:03:02.119Z,1.90
2018-08-06T00:05:31.323Z,1.97
2018-08-06T00:08:00.242Z,1.77
2018-08-06T00:10:29.364Z,1.90
2018-08-06T00:12:58.547Z,2.47
2018-08-06T00:15:27.787Z,2.00
2018-08-06T00:17:57.057Z,2.00
2018-08-06T00:20:26.270Z,1.80
2018-08-06T00:22:55.855Z,1.90
2018-08-06T00:25:25.035Z,2.50
2018-08-06T00:27:54.235Z,2.10
2018-08-06T00:30:23.435Z,2.30
2018-08-06T00:32:52.647Z,2.27
2018-08-06T00:35:21.835Z,2.40
2018-08-06T00:37:51.751Z,2.43
2018-08-06T00:40:21.755Z,2.10
2018-08-06T00:42:51.255Z,2.37
2018-08-06T00:45:21.749Z,2.40
2018-08-06T00:47:51.196Z,2.83
2018-08-06T00:50:20.429Z,1.90
2018-08-06T00:52:49.692Z,2.17
2018-08-06T00:55:20.021Z,2.50
2018-08-06T00:57:49.287Z,1.93
2018-08-06T01:00:19.771Z,2.20
2018-08-06T01:02:49.047Z,2.70
2018-08-06T01:05:18.443Z,2.60
2018-08-06T01:07:48.175Z,2.73
2018-08-06T01:10:18.655Z,2.00
2018-08-06T01:12:47.944Z,2.13
2018-08-06T01:15:18.440Z,2.40
2018-08-06T01:17:47.636Z,2.30
2018-08-06T01:20:16.909Z,2.70
2018-08-06T01:22:46.422Z,2.40
2018-08-06T01:25:15.903Z,2.43
2018-08-06T01:27:45.092Z,2.67
2018-08-06T01:30:15.575Z,3.00
2018-08-06T01:32:44.939Z,2.50
2018-08-06T01:35:14.191Z,2.80
2018-08-06T01:37:43.442Z,3.00
2018-08-06T01:40:14.280Z,2.97
2018-08-06T01:42:43.692Z,2.60
2018-08-06T01:45:14.336Z,2.30
2018-08-06T01:47:43.552Z,2.70
2018-08-06T01:50:13.863Z,2.67
2018-08-06T01:52:43.424Z,3.00
2018-08-06T01:55:12.627Z,2.40
2018-08-06T01:57:41.518Z,2.80
2018-08-06T02:00:13.811Z,2.50
2018-08-06T02:02:43.066Z,2.40
2018-08-06T02:05:12.503Z,2.40
2018-08-06T02:07:42.447Z,2.40
2018-08-06T02:10:14.129Z,2.63
2018-08-06T02:12:44.323Z,2.57
2018-08-06T02:15:13.995Z,2.40
2018-08-06T02:17:42.874Z,2.30
2018-08-06T02:20:13.907Z,2.80
2018-08-06T02:22:43.566Z,2.70
2018-08-06T02:25:12.795Z,2.90
2018-08-06T02:27:42.585Z,3.37
2018-08-06T02:30:13.624Z,2.70
2018-08-06T02:32:43.132Z,2.90
2018-08-06T02:35:14.139Z,2.90
2018-08-06T02:37:43.762Z,2.57
2018-08-06T02:40:15.646Z,2.50
2018-08-06T02:42:45.311Z,2.93
2018-08-06T02:45:14.589Z,2.73
2018-08-06T02:47:44.158Z,2.83
2018-08-06T02:50:13.415Z,2.97
2018-08-06T02:52:43.551Z,3.00
2018-08-06T02:55:13.993Z,3.33
2018-08-06T02:57:43.217Z,2.93
2018-08-06T03:00:14.711Z,2.47
2018-08-06T03:02:45.803Z,2.50
2018-08-06T03:05:16.695Z,3.00
2018-08-06T03:07:46.261Z,2.53
2018-08-06T03:10:15.576Z,2.70
2018-08-06T03:12:45.831Z,2.50
2018-08-06T03:15:14.737Z,3.10
2018-08-06T03:17:43.847Z,2.10
2018-08-06T03:20:13.924Z,2.80
2018-08-06T03:22:43.443Z,2.97
2018-08-06T03:25:14.598Z,3.20
2018-08-06T03:27:44.531Z,3.23
2018-08-06T03:30:15.476Z,3.27
2018-08-06T03:32:46.103Z,2.97
2018-08-06T03:35:15.379Z,2.63
2018-08-06T03:37:44.297Z,3.20
2018-08-06T03:40:13.935Z,3.27
2018-08-06T03:42:43.643Z,3.10
2018-08-06T03:45:13.199Z,2.93
2018-08-06T03:47:42.927Z,3.03
2018-08-06T03:50:13.339Z,3.13
2018-08-06T03:52:42.376Z,4.23
2018-08-06T03:55:12.164Z,3.23
2018-08-06T03:57:41.860Z,3.10
2018-08-06T04:00:11.666Z,2.73
2018-08-06T04:02:41.602Z,2.87
2018-08-06T04:05:12.004Z,2.97
2018-08-06T04:07:41.259Z,2.80
2018-08-06T04:10:12.463Z,2.33
2018-08-06T04:12:42.167Z,2.50
2018-08-06T04:15:12.271Z,2.93
2018-08-06T04:17:42.632Z,3.60
2018-08-06T04:20:12.741Z,3.50
2018-08-06T04:22:42.995Z,3.00
2018-08-06T04:25:12.423Z,3.17
2018-08-06T04:27:41.678Z,4.00
2018-08-06T04:30:13.948Z,3.10
2018-08-06T04:32:44.514Z,3.40
2018-08-06T04:35:13.843Z,3.70
2018-08-06T04:37:44.110Z,3.23
2018-08-06T04:40:13.670Z,3.00
2018-08-06T04:42:43.392Z,3.40
2018-08-06T04:45:13.224Z,4.00
2018-08-06T04:47:42.916Z,3.33
2018-08-06T04:50:13.743Z,3.83
2018-08-06T04:52:43.583Z,4.03
2018-08-06T04:55:13.996Z,4.10
2018-08-06T04:57:43.305Z,3.33
2018-08-06T05:00:14.620Z,4.00
2018-08-06T05:02:44.463Z,4.47
2018-08-06T05:05:13.767Z,4.37
2018-08-06T05:07:43.071Z,4.80
2018-08-06T05:10:12.818Z,4.33
2018-08-06T05:12:42.059Z,3.80
2018-08-06T05:15:10.955Z,4.00
2018-08-06T05:17:40.033Z,3.90
2018-08-06T05:20:09.279Z,3.60
2018-08-06T05:22:39.187Z,4.60
2018-08-06T05:25:08.478Z,4.50
2018-08-06T05:27:37.718Z,3.73
2018-08-06T05:30:08.991Z,3.63
2018-08-06T05:32:38.171Z,2.90
2018-08-06T05:35:07.971Z,3.50
2018-08-06T05:37:37.182Z,2.87
2018-08-06T05:40:07.513Z,2.60
2018-08-06T05:42:37.031Z,2.47
2018-08-06T05:45:07.564Z,2.60
2018-08-06T05:47:37.795Z,2.23
2018-08-06T05:50:07.890Z,2.57
2018-08-06T05:52:37.060Z,2.73
2018-08-06T05:55:08.087Z,2.80
2018-08-06T05:57:37.339Z,2.67
2018-08-06T06:00:08.487Z,2.57
2018-08-06T06:02:37.624Z,2.90
2018-08-06T06:05:07.475Z,2.77
2018-08-06T06:07:36.690Z,2.40
2018-08-06T06:10:06.943Z,2.73
2018-08-06T06:12:36.876Z,2.17
2018-08-06T06:15:10.963Z,2.80
2018-08-06T06:17:40.499Z,2.47
2018-08-06T06:20:10.080Z,2.70
2018-08-06T06:22:39.274Z,2.53
2018-08-06T06:25:11.071Z,2.57
2018-08-06T06:27:40.480Z,3.53
2018-08-06T06:30:12.304Z,2.20
2018-08-06T06:32:41.614Z,2.77
2018-08-06T06:35:11.550Z,2.13
2018-08-06T06:37:40.795Z,3.00
2018-08-06T06:40:10.046Z,2.40
2018-08-06T06:42:39.223Z,2.33
2018-08-06T06:45:09.527Z,2.60
2018-08-06T06:47:38.727Z,3.07
2018-08-06T06:50:08.648Z,2.67
2018-08-06T06:52:37.962Z,3.27
2018-08-06T06:55:09.213Z,2.70
2018-08-06T06:57:38.794Z,3.40
2018-08-06T07:00:09.471Z,3.17
2018-08-06T07:02:38.828Z,3.33
2018-08-06T07:05:07.891Z,3.53
2018-08-06T07:07:37.768Z,3.00
2018-08-06T07:10:08.939Z,2.93
2018-08-06T07:12:38.516Z,2.60
2018-08-06T07:15:10.871Z,3.63
2018-08-06T07:17:40.752Z,2.97
2018-08-06T07:20:10.290Z,3.40
2018-08-06T07:22:39.595Z,3.10
2018-08-06T07:25:11.016Z,3.20
2018-08-06T07:27:41.447Z,3.03
2018-08-06T07:30:12.483Z,3.03
2018-08-06T07:32:42.126Z,3.50
2018-08-06T07:35:12.430Z,3.50
2018-08-06T07:37:41.438Z,3.10
2018-08-06T07:40:11.257Z,2.60
2018-08-06T07:42:40.644Z,3.40
2018-08-06T07:45:11.874Z,3.37
2018-08-06T07:47:42.430Z,3.60
2018-08-06T07:50:14.580Z,3.13
2018-08-06T07:52:43.855Z,3.63
2018-08-06T07:55:13.267Z,3.27
2018-08-06T07:57:42.516Z,3.07
2018-08-06T08:00:18.263Z,2.90
2018-08-06T08:02:47.859Z,2.80
2018-08-06T08:05:18.062Z,3.07
2018-08-06T08:07:48.315Z,2.87
2018-08-06T08:10:19.629Z,3.10
2018-08-06T08:12:48.919Z,3.07
2018-08-06T08:15:19.503Z,3.23
2018-08-06T08:17:48.780Z,3.07
2018-08-06T08:20:18.987Z,3.10
2018-08-06T08:22:48.170Z,3.10
2018-08-06T08:25:20.519Z,2.90
2018-08-06T08:27:49.787Z,3.10
2018-08-06T08:30:19.471Z,3.87
2018-08-06T08:32:48.791Z,3.10
2018-08-06T08:35:18.283Z,3.33
2018-08-06T08:37:47.507Z,2.63
2018-08-06T08:40:18.874Z,2.60
2018-08-06T08:42:48.222Z,2.67
2018-08-06T08:45:18.335Z,4.20
2018-08-06T08:47:47.514Z,2.90
2018-08-06T08:50:18.663Z,3.23
2018-08-06T08:52:48.411Z,3.90
2018-08-06T08:55:19.030Z,3.13
2018-08-06T08:57:48.263Z,3.07
2018-08-06T09:00:20.338Z,3.70
2018-08-06T09:02:50.717Z,3.17
2018-08-06T09:05:20.044Z,3.17
2018-08-06T09:07:50.172Z,2.47
2018-08-06T09:10:19.883Z,2.60
2018-08-06T09:12:49.390Z,2.70
2018-08-06T09:15:24.683Z,3.17
2018-08-06T09:17:53.562Z,2.73
2018-08-06T09:20:23.647Z,3.10
2018-08-06T09:22:53.026Z,2.57
2018-08-06T09:25:22.231Z,2.53
2018-08-06T09:27:51.931Z,3.17
2018-08-06T09:30:23.415Z,2.67
2018-08-06T09:32:55.728Z,2.80
2018-08-06T09:35:25.906Z,2.30
2018-08-06T09:37:55.118Z,2.93
2018-08-06T09:40:24.909Z,2.77
2018-08-06T09:42:54.461Z,2.10
2018-08-06T09:45:23.992Z,2.57
2018-08-06T09:47:54.622Z,3.07
2018-08-06T09:50:23.904Z,2.47
2018-08-06T09:52:54.108Z,2.93
2018-08-06T09:55:25.963Z,2.87
2018-08-06T09:57:55.156Z,2.93
2018-08-06T10:00:29.802Z,2.93
2018-08-06T10:03:00.352Z,2.80
2018-08-06T10:05:29.931Z,2.00
2018-08-06T10:07:59.071Z,2.47
2018-08-06T10:10:28.303Z,2.63
2018-08-06T10:12:57.816Z,2.60
2018-08-06T10:15:27.028Z,2.10
2018-08-06T10:17:56.456Z,2.20
2018-08-06T10:20:26.217Z,2.80
2018-08-06T10:22:55.248Z,2.60
2018-08-06T10:25:24.467Z,2.70
2018-08-06T10:27:53.668Z,2.27
2018-08-06T10:30:23.595Z,2.30
2018-08-06T10:32:52.651Z,2.97
2018-08-06T10:35:22.208Z,2.60
2018-08-06T10:37:51.392Z,2.30
2018-08-06T10:40:21.948Z,2.43
2018-08-06T10:42:51.231Z,2.70
2018-08-06T10:45:21.507Z,2.30
2018-08-06T10:47:51.139Z,2.77
2018-08-06T10:50:20.710Z,2.70
2018-08-06T10:52:50.004Z,2.40
2018-08-06T10:55:19.235Z,2.40
2018-08-06T10:57:48.632Z,2.53
2018-08-06T11:00:20.197Z,2.50
2018-08-06T11:02:49.844Z,2.90
2018-08-06T11:05:19.616Z,2.57
2018-08-06T11:07:48.831Z,2.50
2018-08-06T11:10:20.827Z,3.50
2018-08-06T11:12:50.052Z,2.10
2018-08-06T11:15:21.767Z,2.33
2018-08-06T11:17:51.060Z,2.20
2018-08-06T11:20:21.058Z,2.33
2018-08-06T11:22:50.321Z,2.50
2018-08-06T11:25:21.134Z,2.07
2018-08-06T11:27:50.387Z,2.10
2018-08-06T11:30:20.423Z,2.03
2018-08-06T11:32:50.119Z,2.23
2018-08-06T11:35:19.531Z,2.00
2018-08-06T11:37:48.969Z,1.90
2018-08-06T11:40:18.531Z,2.13
2018-08-06T11:42:48.459Z,2.50
2018-08-06T11:45:18.895Z,2.17
2018-08-06T11:47:48.332Z,2.20
2018-08-06T11:50:17.607Z,1.87
2018-08-06T11:52:47.512Z,2.10
2018-08-06T11:55:16.691Z,2.73
2018-08-06T11:57:46.397Z,2.40
2018-08-06T12:00:19.618Z,2.27
2018-08-06T12:02:48.899Z,2.10
2018-08-06T12:05:18.155Z,1.77
2018-08-06T12:07:47.652Z,2.20
2018-08-06T12:10:18.115Z,1.70
2018-08-06T12:12:48.055Z,1.90
2018-08-06T12:15:17.444Z,2.17
2018-08-06T12:17:46.603Z,1.80
2018-08-06T12:20:20.306Z,1.80
2018-08-06T12:22:50.763Z,1.73
2018-08-06T12:25:20.184Z,1.70
2018-08-06T12:27:50.120Z,1.60
2018-08-06T12:30:21.331Z,1.70
2018-08-06T12:32:51.371Z,1.80
2018-08-06T12:35:20.559Z,1.50
2018-08-06T12:37:49.803Z,2.07
2018-08-06T12:40:22.029Z,1.80
2018-08-06T12:42:52.628Z,1.70
2018-08-06T12:45:21.899Z,1.87
2018-08-06T12:47:51.200Z,1.60
2018-08-06T12:50:20.386Z,1.50
2018-08-06T12:52:49.795Z,1.40
2018-08-06T12:55:19.271Z,1.77
2018-08-06T12:57:48.466Z,1.60
2018-08-06T13:00:20.339Z,1.60
2018-08-06T13:02:50.188Z,1.47
2018-08-06T13:05:20.663Z,1.60
2018-08-06T13:07:50.792Z,1.70
2018-08-06T13:10:20.158Z,1.23
2018-08-06T13:12:49.652Z,1.60
2018-08-06T13:15:19.245Z,1.30
2018-08-06T13:17:48.545Z,1.30
2018-08-06T13:20:17.784Z,1.53
2018-08-06T13:22:47.415Z,1.40
2018-08-06T13:25:16.704Z,1.17
2018-08-06T13:27:46.404Z,1.33
2018-08-06T13:30:16.143Z,1.30
2018-08-06T13:32:45.854Z,1.30
2018-08-06T13:35:15.749Z,1.30
2018-08-06T13:37:46.155Z,1.10
2018-08-06T13:40:15.387Z,1.90
2018-08-06T13:42:44.669Z,1.73
2018-08-06T13:45:14.409Z,1.40
2018-08-06T13:47:43.732Z,1.47
2018-08-06T13:50:13.167Z,1.10
2018-08-06T13:52:42.473Z,1.23
2018-08-06T13:55:13.501Z,1.00
2018-08-06T13:57:43.069Z,1.20
2018-08-06T14:00:15.423Z,1.50
2018-08-06T14:02:45.570Z,1.53
2018-08-06T14:05:17.445Z,1.95
2018-08-06T14:07:48.068Z,1.17
2018-08-06T14:10:17.642Z,1.10
2018-08-06T14:12:47.551Z,1.20
2018-08-06T14:15:16.797Z,1.40
2018-08-06T14:17:45.995Z,1.35
2018-08-06T14:20:17.205Z,1.20
2018-08-06T14:22:46.467Z,1.17
2018-08-06T14:25:16.055Z,1.33
2018-08-06T14:27:45.341Z,1.13
2018-08-06T14:30:15.709Z,1.12
2018-08-06T14:32:45.974Z,1.47
2018-08-06T14:35:15.799Z,1.60
2018-08-06T14:37:45.052Z,1.10
2018-08-06T14:40:16.567Z,1.30
2018-08-06T14:42:46.099Z,1.57
2018-08-06T14:45:15.606Z,1.47
2018-08-06T14:47:44.882Z,1.30
2018-08-06T14:50:15.135Z,1.20
2018-08-06T14:52:44.395Z,1.10
2018-08-06T14:55:14.161Z,1.30
2018-08-06T14:57:43.644Z,2.30
2018-08-06T15:00:19.891Z,1.20
2018-08-06T15:02:49.959Z,1.40
2018-08-06T15:05:19.207Z,1.30
2018-08-06T15:07:48.592Z,1.12
2018-08-06T15:10:17.797Z,1.42
2018-08-06T15:12:47.092Z,1.10
2018-08-06T15:15:17.526Z,1.15
2018-08-06T15:17:47.189Z,1.02
2018-08-06T15:20:17.410Z,1.10
2018-08-06T15:22:47.332Z,1.20
2018-08-06T15:25:18.356Z,1.37
2018-08-06T15:27:47.558Z,1.07
2018-08-06T15:30:16.858Z,1.65
2018-08-06T15:32:46.095Z,1.20
2018-08-06T15:35:15.397Z,1.17
2018-08-06T15:37:45.199Z,1.20
2018-08-06T15:40:16.295Z,1.47
2018-08-06T15:42:45.582Z,1.20
2018-08-06T15:45:15.640Z,1.25
2018-08-06T15:47:45.728Z,1.57
2018-08-06T15:50:18.858Z,1.30
2018-08-06T15:52:48.135Z,1.10
2018-08-06T15:55:18.144Z,1.40
2018-08-06T15:57:47.406Z,1.37
2018-08-06T16:00:17.973Z,1.30
2018-08-06T16:02:47.483Z,1.25
2018-08-06T16:05:17.035Z,1.50
2018-08-06T16:07:46.800Z,1.20
2018-08-06T16:10:16.415Z,1.30
2018-08-06T16:12:45.711Z,1.00
2018-08-06T16:15:15.679Z,1.32
2018-08-06T16:17:45.359Z,1.47
2018-08-06T16:20:15.807Z,1.55
2018-08-06T16:22:45.068Z,1.57
2018-08-06T16:25:14.881Z,1.20
2018-08-06T16:27:44.578Z,1.60
2018-08-06T16:30:19.003Z,1.30
2018-08-06T16:32:48.866Z,1.32
2018-08-06T16:35:19.903Z,1.07
2018-08-06T16:37:50.427Z,1.47
2018-08-06T16:40:19.599Z,2.00
2018-08-06T16:42:49.591Z,2.37
2018-08-06T16:45:18.918Z,1.95
2018-08-06T16:47:48.170Z,2.00
2018-08-06T16:50:18.003Z,1.60
2018-08-06T16:52:47.636Z,1.50
2018-08-06T16:55:16.679Z,1.62
2018-08-06T16:57:45.931Z,1.75
2018-08-06T17:00:19.055Z,1.70
2018-08-06T17:02:49.020Z,2.10
2018-08-06T17:05:18.556Z,1.40
2018-08-06T17:07:48.666Z,1.65
2018-08-06T17:10:19.484Z,2.60
2018-08-06T17:12:51.255Z,1.35
2018-08-06T17:15:21.351Z,1.40
2018-08-06T17:17:52.751Z,1.10
2018-08-06T17:20:22.819Z,1.30
2018-08-06T17:22:52.458Z,2.00
2018-08-06T17:25:21.994Z,1.40
2018-08-06T17:27:51.452Z,1.43
2018-08-06T17:30:20.804Z,1.40
2018-08-06T17:32:50.397Z,1.30
2018-08-06T17:35:19.592Z,1.30
2018-08-06T17:37:49.268Z,1.47
2018-08-06T17:40:19.527Z,1.70
2018-08-06T17:42:49.300Z,1.60
2018-08-06T17:45:23.229Z,1.70
2018-08-06T17:47:52.819Z,1.27
2018-08-06T17:50:22.755Z,1.70
2018-08-06T17:52:52.763Z,1.83
2018-08-06T17:55:23.231Z,1.80
2018-08-06T17:57:52.767Z,1.83
2018-08-06T18:00:22.030Z,1.83
2018-08-06T18:02:51.778Z,1.70
2018-08-06T18:05:21.052Z,1.97
2018-08-06T18:07:50.619Z,1.60
2018-08-06T18:10:20.067Z,1.80
2018-08-06T18:12:49.455Z,1.60
2018-08-06T18:15:18.957Z,2.07
2018-08-06T18:17:48.211Z,1.80
2018-08-06T18:20:18.646Z,1.57
2018-08-06T18:22:48.259Z,1.70
2018-08-06T18:25:18.727Z,1.93
2018-08-06T18:27:48.800Z,2.00
2018-08-06T18:30:20.007Z,2.23
2018-08-06T18:32:49.442Z,2.00
2018-08-06T18:35:19.275Z,1.70
2018-08-06T18:37:48.608Z,1.80
2018-08-06T18:40:19.487Z,1.70
2018-08-06T18:42:49.037Z,1.90
2018-08-06T18:45:19.835Z,2.00
2018-08-06T18:47:50.516Z,1.60
2018-08-06T18:50:20.224Z,2.03
2018-08-06T18:52:49.940Z,1.90
2018-08-06T18:55:19.646Z,1.93
2018-08-06T18:57:48.859Z,2.10
2018-08-06T19:00:20.616Z,2.03
2018-08-06T19:02:50.267Z,2.20
2018-08-06T19:05:20.561Z,1.90
2018-08-06T19:07:50.498Z,2.43
2018-08-06T19:10:19.843Z,2.80
2018-08-06T19:12:54.555Z,2.07
2018-08-06T19:15:23.405Z,2.00
2018-08-06T19:17:58.128Z,2.60
2018-08-06T19:20:27.367Z,2.13
2018-08-06T19:22:56.609Z,2.17
2018-08-06T19:25:29.045Z,2.40
2018-08-06T19:27:58.399Z,2.23
2018-08-06T19:30:33.017Z,2.10
2018-08-06T19:33:03.207Z,2.57
2018-08-06T19:35:32.731Z,3.00
2018-08-06T19:38:01.971Z,2.40
2018-08-06T19:40:31.362Z,2.60
2018-08-06T19:43:06.399Z,2.57
2018-08-06T19:45:35.444Z,2.40
2018-08-06T19:48:04.803Z,2.50
2018-08-06T19:50:39.839Z,2.60
2018-08-06T19:53:09.135Z,2.60
2018-08-06T19:55:43.642Z,2.07
2018-08-06T19:58:13.408Z,2.50
2018-08-06T20:00:42.648Z,2.30
2018-08-06T20:03:12.506Z,2.20
2018-08-06T20:05:41.863Z,2.10
2018-08-06T20:08:11.095Z,2.23
2018-08-06T20:10:40.358Z,2.10
2018-08-06T20:13:09.571Z,2.30
2018-08-06T20:15:38.835Z,2.50
2018-08-06T20:18:08.108Z,3.17
2018-08-06T20:20:37.348Z,2.90
2018-08-06T20:23:07.075Z,2.57
2018-08-06T20:25:36.523Z,2.90
2018-08-06T20:28:05.812Z,2.30
2018-08-06T20:30:35.547Z,2.67
2018-08-06T20:33:05.819Z,2.17
2018-08-06T20:35:35.280Z,2.70
2018-08-06T20:38:04.623Z,2.93
2018-08-06T20:40:34.298Z,2.90
2018-08-06T20:43:03.572Z,2.53
2018-08-06T20:45:33.153Z,2.60
2018-08-06T20:48:02.684Z,3.00
2018-08-06T20:50:31.899Z,3.13
2018-08-06T20:53:01.108Z,2.83
2018-08-06T20:55:30.585Z,3.03
2018-08-06T20:58:00.069Z,2.60
2018-08-06T21:00:29.723Z,2.90
2018-08-06T21:02:59.286Z,2.67
2018-08-06T21:05:28.807Z,2.60
2018-08-06T21:07:58.444Z,3.03
2018-08-06T21:10:27.924Z,2.97
2018-08-06T21:12:57.171Z,2.47
2018-08-06T21:15:26.421Z,2.50
2018-08-06T21:17:55.687Z,2.60
2018-08-06T21:20:24.906Z,2.33
2018-08-06T21:22:54.184Z,3.47
2018-08-06T21:25:23.379Z,2.50
2018-08-06T21:27:52.614Z,3.20
2018-08-06T21:30:22.244Z,2.77
2018-08-06T21:32:55.419Z,3.40
2018-08-06T21:35:25.816Z,3.20
2018-08-06T21:37:55.627Z,2.50
2018-08-06T21:40:25.558Z,3.53
2018-08-06T21:42:55.060Z,2.73
2018-08-06T21:45:24.250Z,2.50
2018-08-06T21:47:53.467Z,2.60
2018-08-06T21:50:23.035Z,3.20
2018-08-06T21:52:52.235Z,3.07
2018-08-06T21:55:21.486Z,2.83
2018-08-06T21:57:50.759Z,3.23
2018-08-06T22:00:29.595Z,2.90
2018-08-06T22:03:00.056Z,2.73
2018-08-06T22:05:29.302Z,2.60
2018-08-06T22:07:58.523Z,2.93
2018-08-06T22:10:27.748Z,2.73
2018-08-06T22:12:56.955Z,2.70
2018-08-06T22:15:26.939Z,3.60
2018-08-06T22:17:56.180Z,2.70
2018-08-06T22:20:25.418Z,2.97
2018-08-06T22:22:55.047Z,2.33
2018-08-06T22:25:24.416Z,2.97
2018-08-06T22:27:53.274Z,3.43
2018-08-06T22:30:22.419Z,3.00
2018-08-06T22:32:51.599Z,2.50
2018-08-06T22:35:20.822Z,2.60
2018-08-06T22:37:50.332Z,2.83
2018-08-06T22:40:19.967Z,2.90
2018-08-06T22:42:49.363Z,3.37
2018-08-06T22:45:18.699Z,3.27
2018-08-06T22:47:48.506Z,3.13
2018-08-06T22:50:19.064Z,3.30
2018-08-06T22:52:48.623Z,3.40
2018-08-06T22:55:17.877Z,3.00
2018-08-06T22:57:47.280Z,3.30
2018-08-06T23:00:17.475Z,2.53
2018-08-06T23:02:46.703Z,2.90
2018-08-06T23:05:17.011Z,2.83
2018-08-06T23:07:46.600Z,3.20
2018-08-06T23:10:17.267Z,3.20
2018-08-06T23:12:46.638Z,3.20
2018-08-06T23:15:17.003Z,2.40
2018-08-06T23:17:46.383Z,2.90
2018-08-06T23:20:15.568Z,3.30
2018-08-06T23:22:45.728Z,2.70
2018-08-06T23:25:14.972Z,2.43
2018-08-06T23:27:44.247Z,2.37
2018-08-06T23:30:14.762Z,2.60
2018-08-06T23:32:44.042Z,3.20
2018-08-06T23:35:13.948Z,2.90
2018-08-06T23:37:44.587Z,2.80
2018-08-06T23:40:14.608Z,3.37
2018-08-06T23:42:44.295Z,2.87
2018-08-06T23:45:14.873Z,2.60
2018-08-06T23:47:44.180Z,2.87
2018-08-06T23:50:14.668Z,2.93
2018-08-06T23:52:45.425Z,3.37
2018-08-06T23:55:16.592Z,2.90
2018-08-06T23:57:45.873Z,3.03
